createdAt,value
2022-07-28T00:04:31.604Z,35.83
2022-07-28T00:09:34.343Z,36.21
2022-07-28T00:14:38.624Z,35.71
2022-07-28T00:19:41.348Z,36.08
2022-07-28T00:24:44.071Z,36.44
2022-07-28T00:29:51.020Z,36.25
2022-07-28T00:34:54.280Z,36.17
2022-07-28T00:39:57.186Z,36.30
2022-07-28T00:45:01.325Z,36.35
2022-07-28T00:50:04.147Z,36.50
2022-07-28T00:55:07.865Z,36.76
2022-07-28T01:00:13.290Z,36.80
2022-07-28T01:05:16.113Z,36.91
2022-07-28T01:10:22.479Z,36.64
2022-07-28T01:15:31.042Z,36.59
2022-07-28T01:20:36.835Z,36.79
2022-07-28T01:25:48.545Z,36.71
2022-07-28T01:30:54.555Z,37.27
2022-07-28T01:36:04.694Z,37.32
2022-07-28T01:41:08.673Z,37.51
2022-07-28T01:46:13.064Z,37.63
2022-07-28T01:51:15.871Z,37.59
2022-07-28T01:56:19.292Z,37.85
2022-07-28T02:01:23.569Z,37.39
2022-07-28T02:06:26.427Z,37.54
2022-07-28T02:11:41.549Z,37.91
2022-07-28T02:16:48.452Z,37.95
2022-07-28T02:21:51.324Z,38.86
2022-07-28T02:26:57.102Z,37.61
2022-07-28T02:32:03.214Z,37.82
2022-07-28T02:37:06.739Z,38.75
2022-07-28T02:42:18.593Z,38.53
2022-07-28T02:47:24.936Z,38.84
2022-07-28T02:52:27.825Z,38.85
2022-07-28T02:57:30.784Z,38.33
2022-07-28T03:02:36.721Z,38.20
2022-07-28T03:07:42.465Z,37.85
2022-07-28T03:12:55.141Z,37.51
2022-07-28T03:18:00.078Z,38.10
2022-07-28T03:23:03.164Z,38.60
2022-07-28T03:28:06.080Z,38.64
2022-07-28T03:33:10.127Z,38.83
2022-07-28T03:38:14.473Z,39.69
2022-07-28T03:43:22.372Z,39.36
2022-07-28T03:48:30.833Z,39.90
2022-07-28T03:53:33.642Z,39.20
2022-07-28T03:58:36.620Z,39.75
2022-07-28T04:03:43.907Z,40.48
2022-07-28T04:08:47.140Z,40.78
2022-07-28T04:13:50.025Z,41.45
2022-07-28T04:18:54.180Z,41.11
2022-07-28T04:24:01.642Z,40.02
2022-07-28T04:29:04.980Z,39.62
2022-07-28T04:34:09.852Z,40.64
2022-07-28T04:39:12.639Z,39.44
2022-07-28T04:44:17.289Z,40.17
2022-07-28T04:49:21.760Z,40.08
2022-07-28T04:54:26.811Z,40.39
2022-07-28T04:59:29.718Z,40.75
2022-07-28T05:04:36.020Z,41.59
2022-07-28T05:09:38.819Z,42.96
2022-07-28T05:14:42.086Z,43.07
2022-07-28T05:19:46.205Z,41.61
2022-07-28T05:24:48.972Z,41.83
2022-07-28T05:29:52.186Z,42.39
2022-07-28T05:34:56.332Z,43.09
2022-07-28T05:39:59.145Z,42.51
2022-07-28T05:50:06.602Z,39.77
2022-07-28T05:55:09.922Z,38.71
2022-07-28T06:00:14.510Z,38.39
2022-07-28T06:05:18.886Z,38.08
2022-07-28T06:10:22.609Z,37.51
2022-07-28T06:15:26.558Z,37.29
2022-07-28T06:20:31.224Z,37.02
2022-07-28T06:25:34.091Z,37.26
2022-07-28T06:30:37.034Z,36.74
2022-07-28T06:35:46.699Z,37.11
2022-07-28T06:40:54.288Z,37.23
2022-07-28T06:45:57.141Z,37.21
2022-07-28T06:51:01.389Z,36.90
2022-07-28T06:56:05.171Z,36.68
2022-07-28T07:01:09.083Z,36.80
2022-07-28T07:06:13.366Z,36.89
2022-07-28T07:11:16.174Z,37.03
2022-07-28T07:16:19.433Z,37.23
2022-07-28T07:21:23.870Z,37.20
2022-07-28T07:26:29.057Z,36.75
2022-07-28T07:31:33.127Z,37.07
2022-07-28T07:36:37.275Z,37.30
2022-07-28T07:41:40.188Z,36.84
2022-07-28T07:46:43.068Z,36.78
2022-07-28T07:51:47.359Z,36.34
2022-07-28T07:56:50.261Z,35.94
2022-07-28T08:01:55.083Z,34.99
2022-07-28T08:06:59.503Z,34.27
2022-07-28T08:12:03.104Z,34.29
2022-07-28T08:17:05.883Z,34.09
2022-07-28T08:22:10.254Z,34.09
2022-07-28T08:27:13.290Z,33.50
2022-07-28T08:32:16.058Z,33.48
2022-07-28T08:37:20.452Z,33.41
2022-07-28T08:42:26.588Z,33.11
2022-07-28T08:47:40.582Z,32.75
2022-07-28T08:52:45.930Z,32.87
2022-07-28T08:57:48.705Z,33.67
2022-07-28T09:02:52.413Z,32.73
2022-07-28T09:07:56.777Z,32.19
2022-07-28T09:12:59.542Z,32.04
2022-07-28T09:18:02.749Z,32.12
2022-07-28T09:23:41.938Z,31.74
2022-07-28T09:28:30.326Z,32.26
2022-07-28T09:33:42.270Z,31.19
2022-07-28T09:38:48.216Z,32.16
2022-07-28T09:43:54.986Z,31.80
2022-07-28T09:48:59.611Z,31.48
2022-07-28T09:54:11.955Z,30.95
2022-07-28T09:59:16.196Z,31.31
2022-07-28T10:04:31.226Z,30.81
2022-07-28T10:09:35.357Z,30.85
2022-07-28T10:14:38.274Z,31.06
2022-07-28T10:19:41.311Z,30.72
2022-07-28T10:24:45.474Z,31.03
2022-07-28T10:29:48.246Z,30.17
2022-07-28T10:34:52.465Z,30.47
2022-07-28T10:40:10.080Z,30.21
2022-07-28T10:45:13.609Z,29.75
2022-07-28T10:50:16.563Z,29.97
2022-07-28T10:55:24.194Z,29.92
2022-07-28T11:00:27.103Z,28.79
2022-07-28T11:05:34.943Z,28.62
2022-07-28T11:10:49.181Z,29.71
2022-07-28T11:15:52.689Z,31.23
2022-07-28T11:21:10.299Z,29.56
2022-07-28T11:26:34.446Z,28.82
2022-07-28T11:32:13.907Z,28.35
2022-07-28T11:37:16.697Z,29.93
2022-07-28T11:42:27.024Z,28.74
2022-07-28T11:47:31.697Z,27.94
2022-07-28T11:52:34.419Z,29.46
2022-07-28T11:57:41.765Z,28.00
2022-07-28T12:02:44.714Z,28.98
2022-07-28T12:07:48.870Z,27.60
2022-07-28T12:12:53.554Z,30.63
2022-07-28T12:17:56.604Z,29.25
2022-07-28T12:23:00.909Z,29.27
2022-07-28T12:28:16.340Z,29.11
2022-07-28T12:33:26.080Z,28.45
2022-07-28T12:38:31.831Z,29.13
2022-07-28T12:43:35.911Z,28.57
2022-07-28T12:48:41.285Z,28.20
2022-07-28T12:53:51.630Z,28.28
2022-07-28T12:59:06.543Z,28.28
2022-07-28T13:04:09.284Z,29.51
2022-07-28T13:09:22.292Z,29.76
2022-07-28T13:14:43.599Z,29.36
2022-07-28T13:19:47.286Z,31.38
2022-07-28T13:24:50.455Z,28.79
2022-07-28T13:29:54.761Z,28.88
2022-07-28T13:34:57.834Z,27.93
2022-07-28T13:40:01.674Z,27.79
2022-07-28T13:45:06.505Z,27.84
2022-07-28T13:50:10.029Z,28.04
2022-07-28T13:55:16.008Z,27.88
2022-07-28T14:00:22.891Z,27.33
2022-07-28T14:05:32.177Z,27.37
2022-07-28T14:10:35.675Z,27.60
2022-07-28T14:15:40.274Z,28.34
2022-07-28T14:20:43.024Z,27.99
2022-07-28T14:25:49.421Z,26.65
2022-07-28T14:30:54.913Z,26.63
2022-07-28T14:35:57.761Z,27.67
2022-07-28T14:41:00.510Z,26.80
2022-07-28T14:46:16.164Z,26.65
2022-07-28T14:51:19.595Z,26.66
2022-07-28T14:56:22.636Z,26.77
2022-07-28T15:01:26.975Z,26.06
2022-07-28T15:06:29.892Z,26.10
2022-07-28T15:11:32.773Z,26.18
2022-07-28T15:16:38.256Z,26.04
2022-07-28T15:21:46.621Z,25.69
2022-07-28T15:26:49.757Z,26.01
2022-07-28T15:31:54.026Z,25.83
2022-07-28T15:36:56.983Z,26.56
2022-07-28T15:41:59.967Z,25.80
2022-07-28T15:47:04.145Z,25.38
2022-07-28T15:52:07.291Z,25.86
2022-07-28T15:57:10.119Z,26.09
2022-07-28T16:02:17.481Z,25.32
2022-07-28T16:07:28.444Z,25.53
2022-07-28T16:12:31.164Z,25.34
2022-07-28T16:17:35.830Z,25.08
2022-07-28T16:22:40.612Z,25.06
2022-07-28T16:27:43.437Z,24.92
2022-07-28T16:32:47.653Z,25.08
2022-07-28T16:37:50.506Z,25.05
2022-07-28T16:42:54.021Z,25.03
2022-07-28T16:47:58.748Z,25.04
2022-07-28T16:53:04.189Z,25.00
2022-07-28T16:58:06.963Z,25.11
2022-07-28T17:03:11.350Z,25.09
2022-07-28T17:08:14.345Z,25.64
2022-07-28T17:13:18.678Z,24.60
2022-07-28T17:18:23.076Z,24.42
2022-07-28T17:23:25.809Z,24.56
2022-07-28T17:28:28.605Z,23.15
2022-07-28T17:33:32.753Z,22.87
2022-07-28T17:38:35.555Z,22.84
2022-07-28T17:43:43.669Z,24.12
2022-07-28T17:48:49.599Z,24.28
2022-07-28T17:53:52.386Z,24.60
2022-07-28T17:58:57.668Z,25.33
2022-07-28T18:04:01.757Z,25.18
2022-07-28T18:09:07.085Z,27.15
2022-07-28T18:14:10.640Z,27.04
2022-07-28T18:19:14.927Z,27.14
2022-07-28T18:24:18.344Z,26.83
2022-07-28T18:29:22.282Z,26.07
2022-07-28T18:34:26.458Z,26.38
2022-07-28T18:39:30.620Z,26.72
2022-07-28T18:44:33.621Z,27.00
2022-07-28T18:49:38.181Z,27.28
2022-07-28T18:54:41.060Z,27.65
2022-07-28T18:59:47.694Z,27.96
2022-07-28T19:04:54.366Z,28.46
2022-07-28T19:09:57.322Z,28.55
2022-07-28T19:15:00.059Z,28.37
2022-07-28T19:20:06.291Z,28.44
2022-07-28T19:25:09.912Z,28.77
2022-07-28T19:30:13.180Z,28.72
2022-07-28T19:35:17.366Z,29.28
2022-07-28T19:40:20.279Z,28.66
2022-07-28T19:45:23.172Z,28.93
2022-07-28T19:50:27.551Z,29.03
2022-07-28T19:55:32.252Z,29.53
2022-07-28T20:00:35.039Z,29.35
2022-07-28T20:05:40.121Z,29.73
2022-07-28T20:10:43.055Z,29.71
2022-07-28T20:15:45.861Z,29.59
2022-07-28T20:20:50.038Z,29.70
2022-07-28T20:25:52.872Z,29.61
2022-07-28T20:30:55.690Z,29.89
2022-07-28T20:35:59.919Z,29.96
2022-07-28T20:41:02.729Z,30.08
2022-07-28T20:46:09.638Z,30.10
2022-07-28T20:51:13.845Z,30.32
2022-07-28T20:56:16.587Z,30.34
2022-07-28T21:01:23.160Z,30.23
2022-07-28T21:06:27.896Z,30.42
2022-07-28T21:11:35.138Z,30.42
2022-07-28T21:16:38.417Z,30.47
2022-07-28T21:21:42.554Z,30.30
2022-07-28T21:26:45.297Z,30.83
2022-07-28T21:32:03.815Z,30.89
2022-07-28T21:37:11.480Z,30.95
2022-07-28T21:42:14.711Z,31.03
2022-07-28T21:47:17.459Z,31.17
2022-07-28T21:52:21.967Z,31.12
2022-07-28T21:57:25.210Z,31.45
2022-07-28T22:02:28.194Z,31.13
2022-07-28T22:07:33.247Z,31.04
2022-07-28T22:12:36.017Z,31.31
2022-07-28T22:17:38.788Z,31.25
2022-07-28T22:22:42.879Z,31.28
2022-07-28T22:27:45.559Z,31.23
2022-07-28T22:32:48.335Z,31.28
2022-07-28T22:37:52.430Z,31.32
2022-07-28T22:42:55.201Z,31.43
2022-07-28T22:47:57.947Z,31.47
2022-07-28T22:53:02.018Z,31.39
2022-07-28T22:58:05.714Z,31.59
2022-07-28T23:03:11.762Z,31.36
2022-07-28T23:08:17.583Z,31.55
2022-07-28T23:13:20.470Z,31.57
2022-07-28T23:18:23.277Z,31.75
2022-07-28T23:23:27.601Z,31.72
2022-07-28T23:28:30.375Z,31.67
2022-07-28T23:33:54.493Z,31.90
2022-07-28T23:38:57.396Z,31.80
2022-07-28T23:44:00.180Z,32.02
2022-07-28T23:49:03.444Z,31.86
2022-07-28T23:54:07.559Z,31.77
2022-07-28T23:59:13.663Z,32.13
